createdAt,value
2022-09-09T00:00:15.172Z,25.10
2022-09-09T00:05:30.113Z,25.10
2022-09-09T00:10:40.557Z,25.00
2022-09-09T00:15:57.904Z,25.00
2022-09-09T00:21:09.413Z,25.10
2022-09-09T00:26:21.461Z,25.00
2022-09-09T00:31:32.568Z,25.10
2022-09-09T00:36:38.854Z,25.10
2022-09-09T00:42:09.441Z,25.00
2022-09-09T00:47:40.308Z,25.00
2022-09-09T00:53:00.113Z,25.10
2022-09-09T00:58:03.624Z,25.00
2022-09-09T01:03:37.250Z,25.00
2022-09-09T01:09:18.122Z,25.10
2022-09-09T01:14:40.889Z,25.00
2022-09-09T01:20:06.943Z,25.00
2022-09-09T01:26:33.168Z,25.00
2022-09-09T01:31:44.184Z,25.10
2022-09-09T01:36:55.687Z,25.00
2022-09-09T01:42:00.887Z,25.10
2022-09-09T01:47:06.273Z,25.10
2022-09-09T01:52:10.373Z,25.10
2022-09-09T01:57:25.730Z,25.10
2022-09-09T02:02:35.579Z,25.10
2022-09-09T02:07:51.921Z,25.10
2022-09-09T02:13:14.887Z,25.10
2022-09-09T02:18:28.547Z,25.10
2022-09-09T02:23:33.069Z,25.10
2022-09-09T02:28:43.150Z,25.10
2022-09-09T02:33:53.626Z,25.00
2022-09-09T02:38:57.452Z,25.00
2022-09-09T02:44:13.119Z,25.00
2022-09-09T02:49:25.856Z,25.00
2022-09-09T02:54:32.624Z,25.00
2022-09-09T02:59:42.766Z,25.00
2022-09-09T03:04:51.763Z,25.00
2022-09-09T03:09:55.992Z,25.00
2022-09-09T03:15:04.054Z,25.00
2022-09-09T03:20:10.214Z,25.00
2022-09-09T03:25:15.242Z,25.00
2022-09-09T03:30:20.848Z,25.00
2022-09-09T03:35:26.225Z,25.00
2022-09-09T03:40:29.713Z,24.90
2022-09-09T03:45:34.941Z,25.00
2022-09-09T03:50:38.506Z,24.90
2022-09-09T03:55:42.523Z,25.00
2022-09-09T04:00:57.447Z,25.00
2022-09-09T04:06:04.470Z,24.90
2022-09-09T04:11:09.664Z,24.90
2022-09-09T04:16:16.652Z,24.90
2022-09-09T04:21:22.342Z,24.90
2022-09-09T04:26:26.243Z,24.90
2022-09-09T04:31:31.781Z,24.90
2022-09-09T04:36:35.552Z,24.90
2022-09-09T04:41:41.754Z,24.90
2022-09-09T04:46:48.723Z,24.90
2022-09-09T04:51:52.879Z,24.80
2022-09-09T04:56:56.893Z,24.80
2022-09-09T05:02:02.646Z,24.80
2022-09-09T05:07:07.608Z,24.80
2022-09-09T05:12:12.113Z,24.80
2022-09-09T05:17:22.415Z,24.80
2022-09-09T05:22:25.955Z,24.80
2022-09-09T05:27:32.418Z,24.80
2022-09-09T05:32:38.293Z,24.80
2022-09-09T05:37:41.899Z,24.80
2022-09-09T05:42:45.548Z,24.80
2022-09-09T05:47:55.637Z,24.80
2022-09-09T05:53:00.132Z,24.80
2022-09-09T05:58:03.875Z,24.80
2022-09-09T06:03:08.922Z,24.80
2022-09-09T06:08:12.760Z,24.80
2022-09-09T06:13:16.308Z,24.80
2022-09-09T06:18:21.608Z,24.80
2022-09-09T06:23:25.727Z,24.80
2022-09-09T06:28:29.654Z,24.80
2022-09-09T06:33:37.626Z,24.80
2022-09-09T06:38:41.173Z,24.80
2022-09-09T06:43:45.022Z,24.80
2022-09-09T06:48:51.553Z,24.80
2022-09-09T06:53:58.002Z,24.80
2022-09-09T06:59:05.028Z,24.80
2022-09-09T07:04:12.401Z,24.60
2022-09-09T07:09:19.095Z,24.30
2022-09-09T07:14:25.585Z,24.20
2022-09-09T07:19:37.932Z,24.10
2022-09-09T07:24:42.742Z,24.00
2022-09-09T07:29:46.670Z,24.00
2022-09-09T07:34:52.305Z,24.00
2022-09-09T07:39:56.211Z,24.00
2022-09-09T07:45:00.442Z,24.00
2022-09-09T07:50:06.690Z,23.90
2022-09-09T07:55:10.414Z,23.80
2022-09-09T08:00:17.138Z,23.80
2022-09-09T08:05:27.875Z,23.80
2022-09-09T08:10:32.319Z,24.00
2022-09-09T08:15:36.935Z,24.10
2022-09-09T08:20:43.254Z,24.20
2022-09-09T08:25:47.220Z,24.20
2022-09-09T08:30:52.210Z,24.20
2022-09-09T08:35:57.206Z,24.30
2022-09-09T08:41:52.741Z,24.30
2022-09-09T08:47:07.392Z,24.30
2022-09-09T08:52:19.826Z,24.40
2022-09-09T08:57:28.711Z,24.40
2022-09-09T09:02:47.081Z,24.40
2022-09-09T09:08:10.219Z,24.40
2022-09-09T09:13:22.581Z,24.40
2022-09-09T09:18:30.241Z,24.40
2022-09-09T09:23:47.732Z,24.40
2022-09-09T09:28:51.263Z,24.40
2022-09-09T09:33:59.251Z,24.40
2022-09-09T09:44:38.175Z,24.40
2022-09-09T09:49:56.336Z,24.40
2022-09-09T09:55:08.169Z,24.40
2022-09-09T10:00:19.895Z,24.40
2022-09-09T10:05:36.311Z,24.40
2022-09-09T10:11:34.519Z,24.40
2022-09-09T10:17:01.719Z,24.40
2022-09-09T10:22:17.852Z,24.40
2022-09-09T10:27:34.835Z,24.40
2022-09-09T10:32:52.222Z,24.40
2022-09-09T10:38:19.495Z,24.40
2022-09-09T10:43:41.711Z,24.40
2022-09-09T10:49:08.733Z,24.40
2022-09-09T10:54:45.908Z,24.40
2022-09-09T10:59:58.443Z,24.40
2022-09-09T11:05:11.214Z,24.40
2022-09-09T11:10:28.168Z,24.40
2022-09-09T11:15:41.926Z,24.40
2022-09-09T11:20:47.168Z,24.40
2022-09-09T11:25:56.914Z,24.40
2022-09-09T11:31:27.374Z,24.40
2022-09-09T11:37:07.924Z,24.40
2022-09-09T11:42:21.313Z,24.40
2022-09-09T11:47:32.381Z,24.40
2022-09-09T11:52:46.731Z,24.40
2022-09-09T11:57:50.172Z,24.40
2022-09-09T12:02:56.052Z,24.40
2022-09-09T12:08:01.594Z,24.40
2022-09-09T12:13:20.366Z,24.40
2022-09-09T12:18:28.232Z,24.40
2022-09-09T12:23:44.535Z,24.50
2022-09-09T12:29:07.816Z,24.50
2022-09-09T12:34:20.136Z,24.50
2022-09-09T12:39:34.877Z,24.50
2022-09-09T12:44:38.416Z,24.50
2022-09-09T12:49:44.726Z,24.40
2022-09-09T12:54:52.214Z,24.40
2022-09-09T13:00:12.438Z,24.40
2022-09-09T13:05:22.203Z,24.40
2022-09-09T13:10:36.718Z,24.40
2022-09-09T13:15:55.080Z,24.40
2022-09-09T13:21:01.097Z,24.40
2022-09-09T13:26:08.720Z,24.40
2022-09-09T13:31:28.096Z,24.40
2022-09-09T13:36:36.379Z,24.50
2022-09-09T13:41:47.337Z,24.40
2022-09-09T13:47:09.976Z,24.40
2022-09-09T13:52:18.977Z,24.50
2022-09-09T13:57:26.216Z,24.40
2022-09-09T14:02:29.790Z,24.40
2022-09-09T14:07:34.873Z,24.50
2022-09-09T14:12:38.377Z,24.50
2022-09-09T14:17:41.802Z,24.50
2022-09-09T14:22:46.971Z,24.50
2022-09-09T14:27:52.308Z,24.50
2022-09-09T14:32:55.728Z,24.50
2022-09-09T14:38:02.003Z,24.50
2022-09-09T14:43:06.962Z,24.60
2022-09-09T14:48:10.378Z,24.60
2022-09-09T14:53:15.170Z,24.60
2022-09-09T14:58:18.586Z,24.60
2022-09-09T15:03:23.044Z,24.50
2022-09-09T15:08:28.095Z,24.50
2022-09-09T15:13:31.847Z,24.50
2022-09-09T15:18:37.017Z,24.50
2022-09-09T15:23:42.027Z,24.40
2022-09-09T15:28:48.368Z,24.10
2022-09-09T15:33:54.664Z,24.10
2022-09-09T15:39:00.620Z,24.40
2022-09-09T15:44:04.768Z,24.60
2022-09-09T15:49:11.796Z,24.60
2022-09-09T15:54:21.785Z,24.40
2022-09-09T15:59:27.275Z,24.30
2022-09-09T16:04:32.173Z,24.10
2022-09-09T16:09:38.003Z,24.10
2022-09-09T16:14:41.794Z,24.00
2022-09-09T16:19:46.827Z,24.10
2022-09-09T16:24:51.889Z,24.10
2022-09-09T16:29:55.569Z,24.00
2022-09-09T16:34:59.021Z,23.90
2022-09-09T16:40:06.316Z,23.90
2022-09-09T16:45:11.561Z,24.00
2022-09-09T16:50:15.183Z,24.10
2022-09-09T16:55:21.459Z,24.20
2022-09-09T17:00:25.425Z,24.30
2022-09-09T17:05:28.942Z,24.40
2022-09-09T17:10:34.172Z,24.40
2022-09-09T17:15:43.842Z,24.50
2022-09-09T17:20:47.497Z,24.50
2022-09-09T17:26:00.979Z,24.50
2022-09-09T17:31:07.176Z,24.60
2022-09-09T17:36:14.468Z,24.50
2022-09-09T17:41:22.137Z,24.50
2022-09-09T17:46:29.346Z,24.50
2022-09-09T17:51:35.199Z,24.50
2022-09-09T17:56:42.205Z,24.50
2022-09-09T18:01:49.486Z,24.40
2022-09-09T18:06:55.674Z,24.40
2022-09-09T18:12:01.874Z,24.40
2022-09-09T18:17:06.293Z,24.40
2022-09-09T18:22:09.733Z,24.50
2022-09-09T18:27:14.543Z,24.50
2022-09-09T18:32:20.026Z,24.50
2022-09-09T18:37:23.502Z,24.50
2022-09-09T18:42:28.379Z,24.50
2022-09-09T18:47:31.822Z,24.50
2022-09-09T18:52:35.789Z,24.50
2022-09-09T18:57:41.324Z,24.50
2022-09-09T19:02:44.774Z,24.50
2022-09-09T19:07:48.294Z,24.50
2022-09-09T19:12:53.130Z,24.50
2022-09-09T19:17:56.938Z,24.50
2022-09-09T19:23:00.785Z,24.50
2022-09-09T19:28:06.120Z,24.50
2022-09-09T19:33:09.584Z,24.50
2022-09-09T19:38:13.049Z,24.50
2022-09-09T19:43:17.978Z,24.50
2022-09-09T19:48:21.718Z,24.50
2022-09-09T19:53:25.209Z,24.50
2022-09-09T19:58:30.596Z,24.50
2022-09-09T20:03:34.274Z,24.50
2022-09-09T20:08:40.191Z,24.50
2022-09-09T20:13:46.063Z,24.50
2022-09-09T20:18:52.664Z,24.40
2022-09-09T20:23:56.982Z,24.50
2022-09-09T20:29:04.801Z,24.50
2022-09-09T20:34:11.532Z,24.50
2022-09-09T20:39:18.193Z,24.50
2022-09-09T20:44:25.117Z,24.50
2022-09-09T20:49:30.264Z,24.60
2022-09-09T20:54:35.229Z,24.50
2022-09-09T20:59:41.558Z,24.50
2022-09-09T21:04:45.654Z,24.60
2022-09-09T21:09:49.141Z,24.50
2022-09-09T21:14:54.131Z,24.60
2022-09-09T21:19:57.627Z,24.60
2022-09-09T21:25:01.015Z,24.60
2022-09-09T21:30:07.246Z,24.60
2022-09-09T21:35:12.163Z,24.60
2022-09-09T21:46:14.333Z,24.60
2022-09-09T21:51:19.015Z,24.60
2022-09-09T21:56:23.669Z,24.50
2022-09-09T22:01:28.705Z,24.50
2022-09-09T22:06:32.373Z,24.50
2022-09-09T22:11:36.048Z,24.50
2022-09-09T22:16:41.004Z,24.50
2022-09-09T22:21:44.565Z,24.50
2022-09-09T22:26:48.386Z,24.60
2022-09-09T22:31:53.221Z,24.60
2022-09-09T22:36:57.017Z,24.60
2022-09-09T22:42:01.060Z,24.60
2022-09-09T22:47:06.464Z,24.60
2022-09-09T22:52:10.980Z,24.50
2022-09-09T22:57:14.537Z,24.60
2022-09-09T23:02:20.712Z,24.60
2022-09-09T23:07:24.230Z,24.60
2022-09-09T23:12:28.216Z,24.60
2022-09-09T23:17:34.413Z,24.60
2022-09-09T23:22:39.235Z,24.60
2022-09-09T23:27:42.855Z,24.60
2022-09-09T23:32:50.517Z,24.60
2022-09-09T23:37:54.273Z,24.60
2022-09-09T23:42:57.816Z,24.60
2022-09-09T23:48:03.532Z,24.60
2022-09-09T23:53:08.454Z,24.60
2022-09-09T23:58:12.338Z,24.60
